sensor_id;sensor_type;location;lat;lon;timestamp;temperature;humidity
26599;DHT22;14240;51.064;16.612;2022-12-29T00:02:17;8.20;99.90
26599;DHT22;14240;51.064;16.612;2022-12-29T00:04:43;8.10;99.90
26599;DHT22;14240;51.064;16.612;2022-12-29T00:07:09;8.20;99.90
26599;DHT22;14240;51.064;16.612;2022-12-29T00:09:35;8.10;99.90
26599;DHT22;14240;51.064;16.612;2022-12-29T00:12:02;8.10;99.90
26599;DHT22;14240;51.064;16.612;2022-12-29T00:14:29;8.20;99.90
26599;DHT22;14240;51.064;16.612;2022-12-29T00:17:13;8.10;99.90
26599;DHT22;14240;51.064;16.612;2022-12-29T00:19:39;8.20;99.90
26599;DHT22;14240;51.064;16.612;2022-12-29T00:22:23;8.20;99.90
26599;DHT22;14240;51.064;16.612;2022-12-29T00:25:12;8.20;99.90
26599;DHT22;14240;51.064;16.612;2022-12-29T00:27:57;8.20;99.90
26599;DHT22;14240;51.064;16.612;2022-12-29T00:30:59;8.20;99.90
26599;DHT22;14240;51.064;16.612;2022-12-29T00:33:44;8.20;99.90
26599;DHT22;14240;51.064;16.612;2022-12-29T00:36:39;8.20;99.90
26599;DHT22;14240;51.064;16.612;2022-12-29T00:39:14;8.30;99.90
26599;DHT22;14240;51.064;16.612;2022-12-29T00:42:06;8.20;99.90
26599;DHT22;14240;51.064;16.612;2022-12-29T00:44:51;8.20;99.90
26599;DHT22;14240;51.064;16.612;2022-12-29T00:47:16;8.20;99.90
26599;DHT22;14240;51.064;16.612;2022-12-29T00:49:43;8.20;99.90
26599;DHT22;14240;51.064;16.612;2022-12-29T00:52:13;8.20;99.90
26599;DHT22;14240;51.064;16.612;2022-12-29T00:54:40;8.20;99.90
26599;DHT22;14240;51.064;16.612;2022-12-29T00:57:08;8.20;99.90
26599;DHT22;14240;51.064;16.612;2022-12-29T00:59:35;8.20;99.90
26599;DHT22;14240;51.064;16.612;2022-12-29T01:02:01;8.20;99.90
26599;DHT22;14240;51.064;16.612;2022-12-29T01:04:27;8.20;99.90
26599;DHT22;14240;51.064;16.612;2022-12-29T01:06:53;8.20;99.90
26599;DHT22;14240;51.064;16.612;2022-12-29T01:09:19;8.20;99.90
26599;DHT22;14240;51.064;16.612;2022-12-29T01:12:07;8.20;99.90
26599;DHT22;14240;51.064;16.612;2022-12-29T01:14:34;8.20;99.90
26599;DHT22;14240;51.064;16.612;2022-12-29T01:16:59;8.20;99.90
26599;DHT22;14240;51.064;16.612;2022-12-29T01:19:25;8.20;99.90
26599;DHT22;14240;51.064;16.612;2022-12-29T01:21:52;8.20;99.90
26599;DHT22;14240;51.064;16.612;2022-12-29T01:24:19;8.20;99.90
26599;DHT22;14240;51.064;16.612;2022-12-29T01:26:45;8.20;99.90
26599;DHT22;14240;51.064;16.612;2022-12-29T01:29:11;8.20;99.90
26599;DHT22;14240;51.064;16.612;2022-12-29T01:31:37;8.20;99.90
26599;DHT22;14240;51.064;16.612;2022-12-29T01:34:04;8.10;99.90
26599;DHT22;14240;51.064;16.612;2022-12-29T01:36:29;8.10;99.90
26599;DHT22;14240;51.064;16.612;2022-12-29T01:38:56;8.10;99.90
26599;DHT22;14240;51.064;16.612;2022-12-29T01:41:21;8.10;99.90
26599;DHT22;14240;51.064;16.612;2022-12-29T01:46:40;8.10;99.90
26599;DHT22;14240;51.064;16.612;2022-12-29T01:49:22;8.00;99.90
26599;DHT22;14240;51.064;16.612;2022-12-29T01:51:52;8.00;99.90
26599;DHT22;14240;51.064;16.612;2022-12-29T01:54:22;8.00;99.90
26599;DHT22;14240;51.064;16.612;2022-12-29T01:56:51;8.00;99.90
26599;DHT22;14240;51.064;16.612;2022-12-29T01:59:21;7.90;99.90
26599;DHT22;14240;51.064;16.612;2022-12-29T02:01:48;7.90;99.90
26599;DHT22;14240;51.064;16.612;2022-12-29T02:04:14;7.90;99.90
26599;DHT22;14240;51.064;16.612;2022-12-29T02:07:05;7.90;99.90
26599;DHT22;14240;51.064;16.612;2022-12-29T02:09:32;7.90;99.90
26599;DHT22;14240;51.064;16.612;2022-12-29T02:11:59;7.80;99.90
26599;DHT22;14240;51.064;16.612;2022-12-29T02:14:26;7.90;99.90
26599;DHT22;14240;51.064;16.612;2022-12-29T02:28:44;7.80;99.90
26599;DHT22;14240;51.064;16.612;2022-12-29T02:47:54;7.80;99.90
26599;DHT22;14240;51.064;16.612;2022-12-29T02:50:37;7.80;99.90
26599;DHT22;14240;51.064;16.612;2022-12-29T02:53:12;7.90;99.90
26599;DHT22;14240;51.064;16.612;2022-12-29T02:55:39;7.80;99.90
26599;DHT22;14240;51.064;16.612;2022-12-29T02:58:20;7.90;99.90
26599;DHT22;14240;51.064;16.612;2022-12-29T03:03:38;7.90;99.90
26599;DHT22;14240;51.064;16.612;2022-12-29T03:06:38;7.90;99.90
26599;DHT22;14240;51.064;16.612;2022-12-29T03:09:39;7.90;99.90
26599;DHT22;14240;51.064;16.612;2022-12-29T03:15:09;8.50;99.90
26599;DHT22;14240;51.064;16.612;2022-12-29T03:18:06;8.00;99.90
26599;DHT22;14240;51.064;16.612;2022-12-29T03:20:44;8.00;99.90
26599;DHT22;14240;51.064;16.612;2022-12-29T03:23:13;8.00;99.90
26599;DHT22;14240;51.064;16.612;2022-12-29T03:25:44;8.10;99.90
26599;DHT22;14240;51.064;16.612;2022-12-29T03:28:20;8.00;99.90
26599;DHT22;14240;51.064;16.612;2022-12-29T03:30:47;8.10;99.90
26599;DHT22;14240;51.064;16.612;2022-12-29T03:33:20;8.10;99.90
26599;DHT22;14240;51.064;16.612;2022-12-29T03:35:48;8.10;99.90
26599;DHT22;14240;51.064;16.612;2022-12-29T03:38:34;8.10;99.90
26599;DHT22;14240;51.064;16.612;2022-12-29T03:41:04;8.10;99.90
26599;DHT22;14240;51.064;16.612;2022-12-29T03:43:33;8.20;99.90
26599;DHT22;14240;51.064;16.612;2022-12-29T03:45:59;8.20;99.90
26599;DHT22;14240;51.064;16.612;2022-12-29T03:48:24;8.20;99.90
26599;DHT22;14240;51.064;16.612;2022-12-29T03:50:50;8.30;99.90
26599;DHT22;14240;51.064;16.612;2022-12-29T03:53:16;8.20;99.90
26599;DHT22;14240;51.064;16.612;2022-12-29T03:55:42;8.30;99.90
26599;DHT22;14240;51.064;16.612;2022-12-29T03:58:07;8.30;99.90
26599;DHT22;14240;51.064;16.612;2022-12-29T04:00:33;8.30;99.90
26599;DHT22;14240;51.064;16.612;2022-12-29T04:02:59;8.30;99.90
26599;DHT22;14240;51.064;16.612;2022-12-29T04:05:24;8.40;99.90
26599;DHT22;14240;51.064;16.612;2022-12-29T04:07:50;8.40;99.90
26599;DHT22;14240;51.064;16.612;2022-12-29T04:10:16;8.40;99.90
26599;DHT22;14240;51.064;16.612;2022-12-29T04:12:42;8.40;99.90
26599;DHT22;14240;51.064;16.612;2022-12-29T04:15:08;8.40;99.90
26599;DHT22;14240;51.064;16.612;2022-12-29T04:17:34;8.40;99.90
26599;DHT22;14240;51.064;16.612;2022-12-29T04:20:00;8.40;99.90
26599;DHT22;14240;51.064;16.612;2022-12-29T04:22:44;8.50;99.90
26599;DHT22;14240;51.064;16.612;2022-12-29T04:25:10;8.50;99.90
26599;DHT22;14240;51.064;16.612;2022-12-29T04:27:36;8.50;99.90
26599;DHT22;14240;51.064;16.612;2022-12-29T04:30:02;8.50;99.90
26599;DHT22;14240;51.064;16.612;2022-12-29T04:32:28;8.50;99.90
26599;DHT22;14240;51.064;16.612;2022-12-29T04:34:54;8.50;99.90
26599;DHT22;14240;51.064;16.612;2022-12-29T04:37:19;8.50;99.90
26599;DHT22;14240;51.064;16.612;2022-12-29T04:39:45;8.50;99.90
26599;DHT22;14240;51.064;16.612;2022-12-29T04:42:11;8.60;99.90
26599;DHT22;14240;51.064;16.612;2022-12-29T04:44:36;8.60;99.90
26599;DHT22;14240;51.064;16.612;2022-12-29T04:47:02;8.60;99.90
26599;DHT22;14240;51.064;16.612;2022-12-29T04:49:28;8.60;99.90
26599;DHT22;14240;51.064;16.612;2022-12-29T04:51:53;8.60;99.90
26599;DHT22;14240;51.064;16.612;2022-12-29T04:54:19;8.60;99.90
26599;DHT22;14240;51.064;16.612;2022-12-29T04:56:45;8.60;99.90
26599;DHT22;14240;51.064;16.612;2022-12-29T04:59:10;8.70;99.90
26599;DHT22;14240;51.064;16.612;2022-12-29T05:01:36;8.70;99.90
26599;DHT22;14240;51.064;16.612;2022-12-29T05:04:02;8.70;99.90
26599;DHT22;14240;51.064;16.612;2022-12-29T05:06:28;8.70;99.90
26599;DHT22;14240;51.064;16.612;2022-12-29T05:08:53;8.70;99.90
26599;DHT22;14240;51.064;16.612;2022-12-29T05:11:19;8.70;99.90
26599;DHT22;14240;51.064;16.612;2022-12-29T05:13:45;8.70;99.90
26599;DHT22;14240;51.064;16.612;2022-12-29T05:16:11;8.70;99.90
26599;DHT22;14240;51.064;16.612;2022-12-29T05:18:37;8.70;99.90
26599;DHT22;14240;51.064;16.612;2022-12-29T05:21:03;8.70;99.90
26599;DHT22;14240;51.064;16.612;2022-12-29T05:23:29;8.70;99.90
26599;DHT22;14240;51.064;16.612;2022-12-29T05:25:54;8.70;99.90
26599;DHT22;14240;51.064;16.612;2022-12-29T05:28:20;8.60;99.90
26599;DHT22;14240;51.064;16.612;2022-12-29T05:30:49;8.60;99.90
26599;DHT22;14240;51.064;16.612;2022-12-29T05:33:17;8.60;99.90
26599;DHT22;14240;51.064;16.612;2022-12-29T05:35:43;8.60;99.90
26599;DHT22;14240;51.064;16.612;2022-12-29T05:38:08;8.60;99.90
26599;DHT22;14240;51.064;16.612;2022-12-29T05:40:34;8.60;99.90
26599;DHT22;14240;51.064;16.612;2022-12-29T05:43:00;8.60;99.90
26599;DHT22;14240;51.064;16.612;2022-12-29T05:45:26;8.60;99.90
26599;DHT22;14240;51.064;16.612;2022-12-29T05:47:51;8.60;99.90
26599;DHT22;14240;51.064;16.612;2022-12-29T05:50:17;8.60;99.90
26599;DHT22;14240;51.064;16.612;2022-12-29T05:52:43;8.60;99.90
26599;DHT22;14240;51.064;16.612;2022-12-29T05:55:09;8.50;99.90
26599;DHT22;14240;51.064;16.612;2022-12-29T05:57:35;8.50;99.90
26599;DHT22;14240;51.064;16.612;2022-12-29T06:00:01;8.50;99.90
26599;DHT22;14240;51.064;16.612;2022-12-29T06:02:26;8.50;99.90
26599;DHT22;14240;51.064;16.612;2022-12-29T06:04:52;8.50;99.90
26599;DHT22;14240;51.064;16.612;2022-12-29T06:07:18;8.50;99.90
26599;DHT22;14240;51.064;16.612;2022-12-29T06:09:43;8.50;99.90
26599;DHT22;14240;51.064;16.612;2022-12-29T06:12:09;8.50;99.90
26599;DHT22;14240;51.064;16.612;2022-12-29T06:14:35;8.50;99.90
26599;DHT22;14240;51.064;16.612;2022-12-29T06:17:00;8.50;99.90
26599;DHT22;14240;51.064;16.612;2022-12-29T06:19:26;8.50;99.90
26599;DHT22;14240;51.064;16.612;2022-12-29T06:21:52;8.50;99.90
26599;DHT22;14240;51.064;16.612;2022-12-29T06:24:21;8.60;99.90
26599;DHT22;14240;51.064;16.612;2022-12-29T06:26:47;8.60;99.90
26599;DHT22;14240;51.064;16.612;2022-12-29T06:29:12;8.60;99.90
26599;DHT22;14240;51.064;16.612;2022-12-29T06:31:42;8.60;99.90
26599;DHT22;14240;51.064;16.612;2022-12-29T06:34:11;8.60;99.90
26599;DHT22;14240;51.064;16.612;2022-12-29T06:36:36;8.70;99.90
26599;DHT22;14240;51.064;16.612;2022-12-29T06:39:02;9.30;99.90
26599;DHT22;14240;51.064;16.612;2022-12-29T06:41:28;8.70;99.90
26599;DHT22;14240;51.064;16.612;2022-12-29T06:43:54;8.70;99.90
26599;DHT22;14240;51.064;16.612;2022-12-29T06:46:19;8.70;99.90
26599;DHT22;14240;51.064;16.612;2022-12-29T06:48:45;8.70;99.90
26599;DHT22;14240;51.064;16.612;2022-12-29T06:51:11;8.70;99.90
26599;DHT22;14240;51.064;16.612;2022-12-29T06:53:36;8.70;99.90
26599;DHT22;14240;51.064;16.612;2022-12-29T06:56:02;8.70;99.90
26599;DHT22;14240;51.064;16.612;2022-12-29T06:58:28;8.70;99.90
26599;DHT22;14240;51.064;16.612;2022-12-29T07:00:54;8.70;99.90
26599;DHT22;14240;51.064;16.612;2022-12-29T07:03:20;8.70;99.90
26599;DHT22;14240;51.064;16.612;2022-12-29T07:05:45;8.80;99.90
26599;DHT22;14240;51.064;16.612;2022-12-29T07:08:11;8.80;99.90
26599;DHT22;14240;51.064;16.612;2022-12-29T07:10:37;8.80;99.90
26599;DHT22;14240;51.064;16.612;2022-12-29T07:13:02;8.80;99.90
26599;DHT22;14240;51.064;16.612;2022-12-29T07:15:28;8.80;99.90
26599;DHT22;14240;51.064;16.612;2022-12-29T07:17:54;8.80;99.90
26599;DHT22;14240;51.064;16.612;2022-12-29T07:20:19;8.80;99.90
26599;DHT22;14240;51.064;16.612;2022-12-29T07:22:45;8.80;99.90
26599;DHT22;14240;51.064;16.612;2022-12-29T07:25:12;8.80;99.90
26599;DHT22;14240;51.064;16.612;2022-12-29T07:27:38;8.80;99.90
26599;DHT22;14240;51.064;16.612;2022-12-29T07:30:04;8.80;99.90
26599;DHT22;14240;51.064;16.612;2022-12-29T07:32:34;8.80;99.90
26599;DHT22;14240;51.064;16.612;2022-12-29T07:34:59;8.80;99.90
26599;DHT22;14240;51.064;16.612;2022-12-29T07:37:25;8.80;99.90
26599;DHT22;14240;51.064;16.612;2022-12-29T07:39:51;8.80;99.90
26599;DHT22;14240;51.064;16.612;2022-12-29T07:42:16;8.90;99.90
26599;DHT22;14240;51.064;16.612;2022-12-29T07:44:42;8.90;99.90
26599;DHT22;14240;51.064;16.612;2022-12-29T07:47:08;8.90;99.90
26599;DHT22;14240;51.064;16.612;2022-12-29T07:49:33;8.90;99.90
26599;DHT22;14240;51.064;16.612;2022-12-29T07:51:59;8.90;99.90
26599;DHT22;14240;51.064;16.612;2022-12-29T07:54:25;8.90;99.90
26599;DHT22;14240;51.064;16.612;2022-12-29T07:56:51;8.90;99.90
26599;DHT22;14240;51.064;16.612;2022-12-29T07:59:17;9.00;99.90
26599;DHT22;14240;51.064;16.612;2022-12-29T08:01:42;9.00;99.90
26599;DHT22;14240;51.064;16.612;2022-12-29T08:04:08;9.10;99.90
26599;DHT22;14240;51.064;16.612;2022-12-29T08:06:34;9.10;99.90
26599;DHT22;14240;51.064;16.612;2022-12-29T08:09:00;9.20;99.90
26599;DHT22;14240;51.064;16.612;2022-12-29T08:11:27;9.20;99.90
26599;DHT22;14240;51.064;16.612;2022-12-29T08:13:53;9.20;99.90
26599;DHT22;14240;51.064;16.612;2022-12-29T08:16:18;9.30;99.90
26599;DHT22;14240;51.064;16.612;2022-12-29T08:18:44;9.30;99.90
26599;DHT22;14240;51.064;16.612;2022-12-29T08:21:10;9.40;99.90
26599;DHT22;14240;51.064;16.612;2022-12-29T08:23:36;9.40;99.90
26599;DHT22;14240;51.064;16.612;2022-12-29T08:26:03;9.50;99.90
26599;DHT22;14240;51.064;16.612;2022-12-29T08:28:30;9.50;99.90
26599;DHT22;14240;51.064;16.612;2022-12-29T08:31:00;9.60;99.90
26599;DHT22;14240;51.064;16.612;2022-12-29T08:33:27;9.60;99.90
26599;DHT22;14240;51.064;16.612;2022-12-29T08:36:05;9.60;99.90
26599;DHT22;14240;51.064;16.612;2022-12-29T08:38:31;9.70;99.90
26599;DHT22;14240;51.064;16.612;2022-12-29T08:40:58;9.70;99.90
26599;DHT22;14240;51.064;16.612;2022-12-29T08:43:24;9.70;99.90
26599;DHT22;14240;51.064;16.612;2022-12-29T08:45:50;9.70;99.90
26599;DHT22;14240;51.064;16.612;2022-12-29T08:48:15;9.70;99.90
26599;DHT22;14240;51.064;16.612;2022-12-29T08:50:46;9.70;99.90
26599;DHT22;14240;51.064;16.612;2022-12-29T08:53:11;9.80;99.90
26599;DHT22;14240;51.064;16.612;2022-12-29T08:55:37;9.90;99.90
26599;DHT22;14240;51.064;16.612;2022-12-29T08:58:03;9.90;99.90
26599;DHT22;14240;51.064;16.612;2022-12-29T09:00:29;9.90;99.90
26599;DHT22;14240;51.064;16.612;2022-12-29T09:02:55;10.00;99.90
26599;DHT22;14240;51.064;16.612;2022-12-29T09:05:21;10.00;99.90
26599;DHT22;14240;51.064;16.612;2022-12-29T09:07:47;10.10;99.90
26599;DHT22;14240;51.064;16.612;2022-12-29T09:10:13;10.10;99.90
26599;DHT22;14240;51.064;16.612;2022-12-29T09:12:38;10.20;99.90
26599;DHT22;14240;51.064;16.612;2022-12-29T09:15:05;9.80;99.90
26599;DHT22;14240;51.064;16.612;2022-12-29T09:17:31;10.30;99.90
26599;DHT22;14240;51.064;16.612;2022-12-29T09:20:08;10.30;99.90
26599;DHT22;14240;51.064;16.612;2022-12-29T09:22:35;10.40;99.90
26599;DHT22;14240;51.064;16.612;2022-12-29T09:25:01;10.40;99.90
26599;DHT22;14240;51.064;16.612;2022-12-29T09:27:26;10.40;99.90
26599;DHT22;14240;51.064;16.612;2022-12-29T09:29:52;10.40;99.90
26599;DHT22;14240;51.064;16.612;2022-12-29T09:32:18;10.50;99.90
26599;DHT22;14240;51.064;16.612;2022-12-29T09:34:43;10.50;99.90
26599;DHT22;14240;51.064;16.612;2022-12-29T09:37:09;10.60;99.90
26599;DHT22;14240;51.064;16.612;2022-12-29T09:39:35;10.60;99.90
26599;DHT22;14240;51.064;16.612;2022-12-29T09:42:03;10.60;99.90
26599;DHT22;14240;51.064;16.612;2022-12-29T09:44:51;10.70;99.90
26599;DHT22;14240;51.064;16.612;2022-12-29T09:47:22;10.80;99.90
26599;DHT22;14240;51.064;16.612;2022-12-29T09:49:56;10.90;99.90
26599;DHT22;14240;51.064;16.612;2022-12-29T09:52:36;10.90;99.90
26599;DHT22;14240;51.064;16.612;2022-12-29T09:57:44;10.90;99.90
26599;DHT22;14240;51.064;16.612;2022-12-29T10:00:12;11.00;99.90
26599;DHT22;14240;51.064;16.612;2022-12-29T10:03:06;11.20;99.90
26599;DHT22;14240;51.064;16.612;2022-12-29T10:05:48;11.30;99.90
26599;DHT22;14240;51.064;16.612;2022-12-29T10:09:06;11.20;99.90
26599;DHT22;14240;51.064;16.612;2022-12-29T10:14:33;11.10;99.90
26599;DHT22;14240;51.064;16.612;2022-12-29T10:22:53;11.00;99.90
26599;DHT22;14240;51.064;16.612;2022-12-29T10:25:25;11.00;99.90
26599;DHT22;14240;51.064;16.612;2022-12-29T10:27:53;10.90;99.90
26599;DHT22;14240;51.064;16.612;2022-12-29T10:30:21;10.90;99.90
26599;DHT22;14240;51.064;16.612;2022-12-29T10:32:52;10.90;99.90
26599;DHT22;14240;51.064;16.612;2022-12-29T10:35:39;10.90;99.90
26599;DHT22;14240;51.064;16.612;2022-12-29T10:40:44;11.00;99.90
26599;DHT22;14240;51.064;16.612;2022-12-29T10:43:32;11.00;99.90
26599;DHT22;14240;51.064;16.612;2022-12-29T10:46:04;11.00;99.90
26599;DHT22;14240;51.064;16.612;2022-12-29T10:48:33;11.10;99.90
26599;DHT22;14240;51.064;16.612;2022-12-29T10:51:01;11.10;99.90
26599;DHT22;14240;51.064;16.612;2022-12-29T10:53:46;11.10;99.90
26599;DHT22;14240;51.064;16.612;2022-12-29T10:56:47;11.10;99.90
26599;DHT22;14240;51.064;16.612;2022-12-29T10:59:26;11.10;99.90
26599;DHT22;14240;51.064;16.612;2022-12-29T11:04:45;11.20;99.90
26599;DHT22;14240;51.064;16.612;2022-12-29T11:07:19;11.20;99.90
26599;DHT22;14240;51.064;16.612;2022-12-29T11:09:46;11.20;99.90
26599;DHT22;14240;51.064;16.612;2022-12-29T11:14:47;11.40;99.90
26599;DHT22;14240;51.064;16.612;2022-12-29T11:17:17;11.40;99.90
26599;DHT22;14240;51.064;16.612;2022-12-29T11:19:43;11.50;99.90
26599;DHT22;14240;51.064;16.612;2022-12-29T11:22:24;11.50;99.90
26599;DHT22;14240;51.064;16.612;2022-12-29T11:24:52;11.60;99.90
26599;DHT22;14240;51.064;16.612;2022-12-29T11:27:21;11.60;99.90
26599;DHT22;14240;51.064;16.612;2022-12-29T11:29:49;11.60;99.90
26599;DHT22;14240;51.064;16.612;2022-12-29T11:32:26;11.70;99.90
26599;DHT22;14240;51.064;16.612;2022-12-29T11:34:53;11.70;99.90
26599;DHT22;14240;51.064;16.612;2022-12-29T11:37:28;11.70;99.90
26599;DHT22;14240;51.064;16.612;2022-12-29T11:39:59;11.70;99.90
26599;DHT22;14240;51.064;16.612;2022-12-29T11:42:37;11.80;99.90
26599;DHT22;14240;51.064;16.612;2022-12-29T11:45:17;11.80;99.90
26599;DHT22;14240;51.064;16.612;2022-12-29T11:47:46;11.80;99.90
26599;DHT22;14240;51.064;16.612;2022-12-29T11:50:25;11.70;99.90
26599;DHT22;14240;51.064;16.612;2022-12-29T11:56:08;11.70;99.90
26599;DHT22;14240;51.064;16.612;2022-12-29T11:58:36;11.70;99.90
26599;DHT22;14240;51.064;16.612;2022-12-29T12:03:42;11.60;99.90
26599;DHT22;14240;51.064;16.612;2022-12-29T12:06:13;11.60;99.90
26599;DHT22;14240;51.064;16.612;2022-12-29T12:09:50;11.50;99.90
26599;DHT22;14240;51.064;16.612;2022-12-29T12:12:25;11.50;99.90
26599;DHT22;14240;51.064;16.612;2022-12-29T12:14:58;11.50;99.90
26599;DHT22;14240;51.064;16.612;2022-12-29T12:17:50;11.50;99.90
26599;DHT22;14240;51.064;16.612;2022-12-29T12:20:26;11.40;99.90
26599;DHT22;14240;51.064;16.612;2022-12-29T12:23:19;11.40;99.90
26599;DHT22;14240;51.064;16.612;2022-12-29T12:26:14;11.30;99.90
26599;DHT22;14240;51.064;16.612;2022-12-29T12:28:57;11.30;99.90
26599;DHT22;14240;51.064;16.612;2022-12-29T12:34:16;11.30;99.90
26599;DHT22;14240;51.064;16.612;2022-12-29T12:41:57;11.20;99.90
26599;DHT22;14240;51.064;16.612;2022-12-29T12:58:08;11.10;99.90
26599;DHT22;14240;51.064;16.612;2022-12-29T13:03:39;11.10;99.90
26599;DHT22;14240;51.064;16.612;2022-12-29T13:06:49;11.00;99.90
26599;DHT22;14240;51.064;16.612;2022-12-29T13:15:17;11.10;99.90
26599;DHT22;14240;51.064;16.612;2022-12-29T13:18:00;11.10;99.90
26599;DHT22;14240;51.064;16.612;2022-12-29T13:20:53;11.10;99.90
26599;DHT22;14240;51.064;16.612;2022-12-29T13:26:38;11.10;99.90
26599;DHT22;14240;51.064;16.612;2022-12-29T13:29:20;11.10;99.90
26599;DHT22;14240;51.064;16.612;2022-12-29T13:31:49;11.10;99.90
26599;DHT22;14240;51.064;16.612;2022-12-29T13:36:56;11.10;99.90
26599;DHT22;14240;51.064;16.612;2022-12-29T13:39:35;11.10;99.90
26599;DHT22;14240;51.064;16.612;2022-12-29T13:42:02;11.10;99.90
26599;DHT22;14240;51.064;16.612;2022-12-29T13:44:35;11.10;99.90
26599;DHT22;14240;51.064;16.612;2022-12-29T13:49:44;11.10;99.90
26599;DHT22;14240;51.064;16.612;2022-12-29T13:55:26;11.00;99.90
26599;DHT22;14240;51.064;16.612;2022-12-29T13:58:07;11.10;99.90
26599;DHT22;14240;51.064;16.612;2022-12-29T14:00:49;11.10;99.90
26599;DHT22;14240;51.064;16.612;2022-12-29T14:06:26;11.10;99.90
26599;DHT22;14240;51.064;16.612;2022-12-29T14:08:55;11.10;99.90
26599;DHT22;14240;51.064;16.612;2022-12-29T14:11:28;11.10;99.90
26599;DHT22;14240;51.064;16.612;2022-12-29T14:13:55;11.00;99.90
26599;DHT22;14240;51.064;16.612;2022-12-29T14:16:31;11.00;99.90
26599;DHT22;14240;51.064;16.612;2022-12-29T14:19:12;11.00;99.90
26599;DHT22;14240;51.064;16.612;2022-12-29T14:21:39;11.00;99.90
26599;DHT22;14240;51.064;16.612;2022-12-29T14:34:50;10.80;99.90
26599;DHT22;14240;51.064;16.612;2022-12-29T14:37:34;10.80;99.90
26599;DHT22;14240;51.064;16.612;2022-12-29T14:42:49;10.70;99.90
26599;DHT22;14240;51.064;16.612;2022-12-29T14:47:46;10.60;99.90
26599;DHT22;14240;51.064;16.612;2022-12-29T14:50:21;10.60;99.90
26599;DHT22;14240;51.064;16.612;2022-12-29T14:52:50;10.50;99.90
26599;DHT22;14240;51.064;16.612;2022-12-29T14:57:57;10.50;99.90
26599;DHT22;14240;51.064;16.612;2022-12-29T15:00:29;10.50;99.90
26599;DHT22;14240;51.064;16.612;2022-12-29T15:03:53;10.50;99.90
26599;DHT22;14240;51.064;16.612;2022-12-29T15:08:33;10.40;99.90
26599;DHT22;14240;51.064;16.612;2022-12-29T15:11:16;10.30;99.90
26599;DHT22;14240;51.064;16.612;2022-12-29T15:13:44;10.20;99.90
26599;DHT22;14240;51.064;16.612;2022-12-29T15:16:34;10.20;99.90
26599;DHT22;14240;51.064;16.612;2022-12-29T15:19:02;10.20;99.90
26599;DHT22;14240;51.064;16.612;2022-12-29T15:21:33;10.10;99.90
26599;DHT22;14240;51.064;16.612;2022-12-29T15:23:59;10.10;99.90
26599;DHT22;14240;51.064;16.612;2022-12-29T15:26:46;10.10;99.90
26599;DHT22;14240;51.064;16.612;2022-12-29T15:34:43;9.90;99.90
26599;DHT22;14240;51.064;16.612;2022-12-29T15:37:15;9.90;99.90
26599;DHT22;14240;51.064;16.612;2022-12-29T15:39:42;9.90;99.90
26599;DHT22;14240;51.064;16.612;2022-12-29T15:44:57;9.90;99.90
26599;DHT22;14240;51.064;16.612;2022-12-29T15:47:29;9.90;99.90
26599;DHT22;14240;51.064;16.612;2022-12-29T15:50:21;9.80;99.90
26599;DHT22;14240;51.064;16.612;2022-12-29T15:52:47;9.80;99.90
26599;DHT22;14240;51.064;16.612;2022-12-29T15:55:24;9.70;99.90
26599;DHT22;14240;51.064;16.612;2022-12-29T15:57:57;9.70;99.90
26599;DHT22;14240;51.064;16.612;2022-12-29T16:00:25;9.60;99.90
26599;DHT22;14240;51.064;16.612;2022-12-29T16:02:53;9.50;99.90
26599;DHT22;14240;51.064;16.612;2022-12-29T16:05:19;9.40;99.90
26599;DHT22;14240;51.064;16.612;2022-12-29T16:07:59;9.40;99.90
26599;DHT22;14240;51.064;16.612;2022-12-29T16:10:39;9.30;99.90
26599;DHT22;14240;51.064;16.612;2022-12-29T16:13:35;9.20;99.90
26599;DHT22;14240;51.064;16.612;2022-12-29T16:16:31;9.30;99.90
26599;DHT22;14240;51.064;16.612;2022-12-29T16:18:57;9.30;99.90
26599;DHT22;14240;51.064;16.612;2022-12-29T16:21:28;9.20;99.90
26599;DHT22;14240;51.064;16.612;2022-12-29T16:23:56;9.20;99.90
26599;DHT22;14240;51.064;16.612;2022-12-29T16:26:24;9.20;99.90
26599;DHT22;14240;51.064;16.612;2022-12-29T16:28:58;9.20;99.90
26599;DHT22;14240;51.064;16.612;2022-12-29T16:31:33;9.10;99.90
26599;DHT22;14240;51.064;16.612;2022-12-29T16:34:11;8.90;99.90
26599;DHT22;14240;51.064;16.612;2022-12-29T16:36:51;8.90;99.90
26599;DHT22;14240;51.064;16.612;2022-12-29T16:39:30;8.80;99.90
26599;DHT22;14240;51.064;16.612;2022-12-29T16:41:56;8.70;99.90
26599;DHT22;14240;51.064;16.612;2022-12-29T16:44:28;8.70;99.90
26599;DHT22;14240;51.064;16.612;2022-12-29T16:49:26;8.70;99.90
26599;DHT22;14240;51.064;16.612;2022-12-29T16:51:52;8.60;99.90
26599;DHT22;14240;51.064;16.612;2022-12-29T16:54:34;8.60;99.90
26599;DHT22;14240;51.064;16.612;2022-12-29T16:57:00;8.60;99.90
26599;DHT22;14240;51.064;16.612;2022-12-29T16:59:38;8.60;99.90
26599;DHT22;14240;51.064;16.612;2022-12-29T17:02:15;8.60;99.90
26599;DHT22;14240;51.064;16.612;2022-12-29T17:04:42;8.60;99.90
26599;DHT22;14240;51.064;16.612;2022-12-29T17:07:19;8.70;99.90
26599;DHT22;14240;51.064;16.612;2022-12-29T17:09:45;8.70;99.90
26599;DHT22;14240;51.064;16.612;2022-12-29T17:12:19;8.70;99.90
26599;DHT22;14240;51.064;16.612;2022-12-29T17:15:03;8.70;99.90
26599;DHT22;14240;51.064;16.612;2022-12-29T17:17:39;8.70;99.90
26599;DHT22;14240;51.064;16.612;2022-12-29T17:20:23;8.70;99.90
26599;DHT22;14240;51.064;16.612;2022-12-29T17:22:50;8.70;99.90
26599;DHT22;14240;51.064;16.612;2022-12-29T17:25:21;8.70;99.90
26599;DHT22;14240;51.064;16.612;2022-12-29T17:27:52;8.70;99.90
26599;DHT22;14240;51.064;16.612;2022-12-29T17:30:23;8.70;99.90
26599;DHT22;14240;51.064;16.612;2022-12-29T17:33:03;8.70;99.90
26599;DHT22;14240;51.064;16.612;2022-12-29T17:35:29;8.70;99.90
26599;DHT22;14240;51.064;16.612;2022-12-29T17:37:55;8.80;99.90
26599;DHT22;14240;51.064;16.612;2022-12-29T17:40:24;8.70;99.90
26599;DHT22;14240;51.064;16.612;2022-12-29T17:42:56;8.70;99.90
26599;DHT22;14240;51.064;16.612;2022-12-29T17:45:31;8.70;99.90
26599;DHT22;14240;51.064;16.612;2022-12-29T17:47:58;8.70;99.90
26599;DHT22;14240;51.064;16.612;2022-12-29T17:50:28;8.70;99.90
26599;DHT22;14240;51.064;16.612;2022-12-29T17:53:02;8.70;99.90
26599;DHT22;14240;51.064;16.612;2022-12-29T17:55:28;8.70;99.90
26599;DHT22;14240;51.064;16.612;2022-12-29T17:57:54;8.70;99.90
26599;DHT22;14240;51.064;16.612;2022-12-29T18:00:23;8.70;99.90
26599;DHT22;14240;51.064;16.612;2022-12-29T18:02:49;8.70;99.90
26599;DHT22;14240;51.064;16.612;2022-12-29T18:05:26;8.70;99.90
26599;DHT22;14240;51.064;16.612;2022-12-29T18:07:55;8.70;99.90
26599;DHT22;14240;51.064;16.612;2022-12-29T18:10:21;8.70;99.90
26599;DHT22;14240;51.064;16.612;2022-12-29T18:12:48;8.70;99.90